KDYS

Dyess AFB Airport

Abilene, Texas, USA
METAR KDYS 240056Z AUTO 12010KT 10SM CLR 30/12 A2997 RMK AO2 SLP105 T02990123 $
Observed Flight Rules
May-24 @ 00:56 UTC (an hour ago) Visual Flight Rules
Wind Visibility Clouds
120° at 10 knots 10 miles
  • Clear skies
Temperatures Readings
Current 30°C / 86°F
Dewpoint 12°C / 54°F
Humidity 33%
Altimeter 29.97" Hg
Pressure 1010.5 hPa
Elevation 545
METAR KDYS 240056Z AUTO 12010KT 10SM CLR 30/12 A2997 RMK AO2 SLP105 T02990123 $
Observed Flight Rules
May-24 @ 00:56 UTC
(an hour ago)
VFR
Wind Visibility
120° at 10 knots 10 miles
Clouds
  • Clear skies
Temperature Dewpoint
30°C / 86°F 12°C / 54°F
Humidity Altimeter Pressure
33% 29.97" Hg 1010.5 hPa